createdAt,value
2018-06-21T00:01:40.601Z,95090.34
2018-06-21T00:04:10.637Z,95086.38
2018-06-21T00:06:40.384Z,95091.51
2018-06-21T00:09:10.640Z,95091.19
2018-06-21T00:11:40.637Z,95090.33
2018-06-21T00:14:10.386Z,95094.84
2018-06-21T00:16:40.528Z,95097.55
2018-06-21T00:19:10.233Z,95097.80
2018-06-21T00:21:39.778Z,95099.55
2018-06-21T00:24:09.357Z,95095.02
2018-06-21T00:26:39.307Z,95099.84
2018-06-21T00:29:09.175Z,95099.83
2018-06-21T00:31:38.843Z,95097.80
2018-06-21T00:34:08.786Z,95106.06
2018-06-21T00:36:38.722Z,95103.88
2018-06-21T00:39:09.483Z,95104.21
2018-06-21T00:41:39.351Z,95099.70
2018-06-21T00:44:09.213Z,95093.19
2018-06-21T00:46:39.196Z,95098.84
2018-06-21T00:49:08.946Z,95092.06
2018-06-21T00:51:38.522Z,95092.92
2018-06-21T00:54:08.315Z,95094.42
2018-06-21T00:56:38.085Z,95095.80
2018-06-21T00:59:07.943Z,95095.05
2018-06-21T01:01:37.775Z,95099.82
2018-06-21T01:04:07.548Z,95094.49
2018-06-21T01:06:37.264Z,95089.46
2018-06-21T01:09:08.222Z,95090.89
2018-06-21T01:11:38.021Z,95099.56
2018-06-21T01:14:07.619Z,95094.02
2018-06-21T01:16:37.474Z,95103.47
2018-06-21T01:19:07.051Z,95106.33
2018-06-21T01:21:36.660Z,95107.07
2018-06-21T01:24:06.474Z,95095.52
2018-06-21T01:26:36.352Z,95097.55
2018-06-21T01:29:06.403Z,95104.25
2018-06-21T01:31:36.314Z,95104.73
2018-06-21T01:34:06.367Z,95110.03
2018-06-21T01:36:36.027Z,95100.45
2018-06-21T01:39:07.568Z,95099.94
2018-06-21T01:41:37.343Z,95101.56
2018-06-21T01:44:07.428Z,95100.77
2018-06-21T01:46:37.057Z,95099.87
2018-06-21T01:49:06.987Z,95097.70
2018-06-21T01:51:36.751Z,95100.56
2018-06-21T01:54:06.524Z,95095.50
2018-06-21T01:56:36.503Z,95088.60
2018-06-21T01:59:06.393Z,95084.95
2018-06-21T02:01:36.363Z,95082.05
2018-06-21T02:04:06.242Z,95079.97
2018-06-21T02:06:36.107Z,95078.14
2018-06-21T02:09:08.460Z,95077.65
2018-06-21T02:11:38.139Z,95077.28
2018-06-21T02:14:07.980Z,95076.60
2018-06-21T02:16:37.559Z,95074.16
2018-06-21T02:19:07.189Z,95085.59
2018-06-21T02:21:36.779Z,95084.11
2018-06-21T02:24:06.783Z,95088.17
2018-06-21T02:26:36.615Z,95089.84
2018-06-21T02:29:06.606Z,95101.42
2018-06-21T02:31:36.422Z,95098.00
2018-06-21T02:34:06.380Z,95098.27
2018-06-21T02:36:36.018Z,95090.79
2018-06-21T02:39:07.973Z,95091.45
2018-06-21T02:41:37.960Z,95090.46
2018-06-21T02:44:07.759Z,95084.97
2018-06-21T02:46:37.407Z,95097.42
2018-06-21T02:49:07.062Z,95092.41
2018-06-21T02:51:36.594Z,95087.66
2018-06-21T02:54:06.396Z,95079.77
2018-06-21T02:56:36.455Z,95081.64
2018-06-21T02:59:06.422Z,95085.33
2018-06-21T03:01:36.511Z,95080.03
2018-06-21T03:04:06.361Z,95083.33
2018-06-21T03:06:36.076Z,95087.47
2018-06-21T03:09:07.856Z,95082.41
2018-06-21T03:11:37.804Z,95036.89
2018-06-21T03:14:07.699Z,95084.49
2018-06-21T03:16:37.561Z,95086.57
2018-06-21T03:19:07.187Z,95084.16
2018-06-21T03:21:36.706Z,95080.64
2018-06-21T03:24:06.700Z,95084.08
2018-06-21T03:26:36.606Z,95088.08
2018-06-21T03:29:06.561Z,95091.32
2018-06-21T03:31:36.511Z,95077.81
2018-06-21T03:34:06.486Z,95083.33
2018-06-21T03:36:36.340Z,95082.27
2018-06-21T03:39:07.459Z,95084.42
2018-06-21T03:41:37.198Z,95079.02
2018-06-21T03:44:07.223Z,95077.52
2018-06-21T03:46:36.928Z,95084.27
2018-06-21T03:49:06.599Z,95083.63
2018-06-21T03:51:36.559Z,95089.03
2018-06-21T03:54:06.185Z,95082.59
2018-06-21T03:56:35.822Z,95082.21
2018-06-21T03:59:05.736Z,95076.83
2018-06-21T04:01:35.865Z,95076.04
2018-06-21T04:04:05.639Z,95070.19
2018-06-21T04:06:35.205Z,95074.95
2018-06-21T04:09:06.972Z,95072.98
2018-06-21T04:11:36.961Z,95072.91
2018-06-21T04:14:06.728Z,95075.14
2018-06-21T04:16:37.193Z,95071.31
2018-06-21T04:19:07.111Z,95063.13
2018-06-21T04:21:36.709Z,95018.52
2018-06-21T04:24:06.867Z,95072.91
2018-06-21T04:26:36.857Z,95074.94
2018-06-21T04:29:06.667Z,95073.38
2018-06-21T04:31:36.629Z,95071.22
2018-06-21T04:34:06.487Z,95074.86
2018-06-21T04:36:36.667Z,95070.50
2018-06-21T04:39:08.920Z,95064.89
2018-06-21T04:41:38.896Z,95063.39
2018-06-21T04:44:08.529Z,95067.29
2018-06-21T04:46:38.464Z,95076.13
2018-06-21T04:49:08.070Z,95074.34
2018-06-21T04:51:37.842Z,95071.81
2018-06-21T04:54:07.482Z,95071.44
2018-06-21T04:56:37.482Z,95074.27
2018-06-21T04:59:07.316Z,95069.23
2018-06-21T05:01:37.154Z,95073.35
2018-06-21T05:04:07.256Z,95067.32
2018-06-21T05:06:37.042Z,95070.50
2018-06-21T05:09:10.125Z,95071.34
2018-06-21T05:11:40.253Z,95066.08
2018-06-21T05:14:10.043Z,95074.22
2018-06-21T05:16:39.703Z,95070.06
2018-06-21T05:19:09.481Z,95068.13
2018-06-21T05:21:39.364Z,95069.61
2018-06-21T05:24:09.220Z,95066.76
2018-06-21T05:26:39.183Z,95065.58
2018-06-21T05:29:09.230Z,95066.88
2018-06-21T05:31:39.039Z,95060.61
2018-06-21T05:34:08.886Z,95059.03
2018-06-21T05:36:38.730Z,95058.39
2018-06-21T05:39:10.448Z,95056.99
2018-06-21T05:41:40.615Z,95056.46
2018-06-21T05:44:10.455Z,95056.19
2018-06-21T05:46:40.111Z,95054.28
2018-06-21T05:49:09.963Z,95051.67
2018-06-21T05:51:40.287Z,95040.72
2018-06-21T05:54:10.070Z,95037.30
2018-06-21T05:56:39.979Z,95045.08
2018-06-21T05:59:09.803Z,95044.86
2018-06-21T06:01:39.600Z,95041.45
2018-06-21T06:04:09.553Z,95042.47
2018-06-21T06:06:39.563Z,95045.83
2018-06-21T06:09:11.023Z,95042.75
2018-06-21T06:11:40.730Z,95041.09
2018-06-21T06:14:10.450Z,95042.55
2018-06-21T06:16:39.910Z,95042.62
2018-06-21T06:19:09.840Z,95044.27
2018-06-21T06:21:39.736Z,95047.09
2018-06-21T06:24:09.903Z,95036.39
2018-06-21T06:26:39.775Z,95045.90
2018-06-21T06:29:09.744Z,95038.91
2018-06-21T06:31:39.806Z,95032.55
2018-06-21T06:34:09.878Z,95031.23
2018-06-21T06:36:39.488Z,95029.30
2018-06-21T06:39:15.913Z,95031.23
2018-06-21T06:41:46.691Z,95025.89
2018-06-21T06:44:16.354Z,95029.81
2018-06-21T06:46:45.991Z,95025.89
2018-06-21T06:49:15.661Z,95028.55
2018-06-21T06:51:45.383Z,95025.44
2018-06-21T06:54:15.163Z,95019.45
2018-06-21T06:56:45.033Z,95024.52
2018-06-21T06:59:14.973Z,95025.73
2018-06-21T07:01:44.873Z,95021.23
2018-06-21T07:04:14.641Z,95021.08
2018-06-21T07:06:44.598Z,95020.31
2018-06-21T07:09:14.418Z,95013.63
2018-06-21T07:11:43.983Z,95004.94
2018-06-21T07:14:13.629Z,95008.28
2018-06-21T07:16:43.446Z,95008.91
2018-06-21T07:19:13.218Z,95011.35
2018-06-21T07:21:43.035Z,95009.44
2018-06-21T07:24:13.291Z,95013.41
2018-06-21T07:26:43.217Z,95007.36
2018-06-21T07:29:12.919Z,95001.45
2018-06-21T07:31:42.751Z,94999.70
2018-06-21T07:34:12.540Z,94995.16
2018-06-21T07:36:42.311Z,95001.05
2018-06-21T07:39:12.070Z,94996.72
2018-06-21T07:41:42.047Z,94993.75
2018-06-21T07:44:11.713Z,94998.02
2018-06-21T07:46:41.358Z,94987.86
2018-06-21T07:49:10.986Z,94988.44
2018-06-21T07:51:40.683Z,94980.99
2018-06-21T07:54:10.636Z,94983.94
2018-06-21T07:56:40.320Z,94983.40
2018-06-21T07:59:10.212Z,94978.61
2018-06-21T08:01:39.986Z,94980.92
2018-06-21T08:04:09.756Z,94977.30
2018-06-21T08:06:39.660Z,94976.16
2018-06-21T08:09:11.233Z,94968.63
2018-06-21T08:11:40.868Z,94966.22
2018-06-21T08:14:10.467Z,94965.70
2018-06-21T08:16:43.390Z,94964.14
2018-06-21T08:19:13.386Z,94968.30
2018-06-21T08:21:43.299Z,94967.38
2018-06-21T08:24:12.946Z,94955.48
2018-06-21T08:26:42.847Z,94955.37
2018-06-21T08:29:12.483Z,94958.73
2018-06-21T08:31:42.963Z,94958.10
2018-06-21T08:34:13.082Z,94950.19
2018-06-21T08:36:43.052Z,94949.78
2018-06-21T08:39:12.656Z,94950.46
2018-06-21T08:41:42.228Z,94950.48
2018-06-21T08:44:11.791Z,94949.09
2018-06-21T08:46:41.700Z,94944.48
2018-06-21T08:49:11.258Z,94943.78
2018-06-21T08:51:41.155Z,94937.93
2018-06-21T08:54:10.935Z,94936.22
2018-06-21T08:56:40.654Z,94939.52
2018-06-21T08:59:10.384Z,94934.80
2018-06-21T09:01:40.465Z,94934.92
2018-06-21T09:04:10.550Z,94924.53
2018-06-21T09:06:40.656Z,94931.97
2018-06-21T09:09:10.689Z,94925.80
2018-06-21T09:11:40.419Z,94921.09
2018-06-21T09:14:10.192Z,94919.66
2018-06-21T09:16:39.947Z,94909.45
2018-06-21T09:19:09.973Z,94912.23
2018-06-21T09:21:39.709Z,94896.13
2018-06-21T09:24:09.346Z,94900.56
2018-06-21T09:26:39.177Z,94899.73
2018-06-21T09:29:08.783Z,94894.81
2018-06-21T09:31:38.463Z,94888.21
2018-06-21T09:34:08.246Z,94889.75
2018-06-21T09:36:39.428Z,94884.00
2018-06-21T09:39:15.789Z,94883.75
2018-06-21T09:41:50.923Z,94874.30
2018-06-21T09:44:25.569Z,94871.89
2018-06-21T09:47:08.167Z,94862.53
2018-06-21T09:49:37.760Z,94862.28
2018-06-21T09:52:07.462Z,94869.17
2018-06-21T09:54:37.287Z,94874.39
2018-06-21T09:57:06.735Z,94864.30
2018-06-21T09:59:36.739Z,94863.88
2018-06-21T10:02:06.509Z,94864.27
2018-06-21T10:04:36.565Z,94856.68
2018-06-21T10:07:06.218Z,94854.81
2018-06-21T10:09:35.836Z,94854.44
2018-06-21T10:12:05.566Z,94841.70
2018-06-21T10:14:35.346Z,94843.63
2018-06-21T10:17:07.979Z,94826.16
2018-06-21T10:19:39.203Z,94825.19
2018-06-21T10:22:09.057Z,94817.84
2018-06-21T10:24:39.015Z,94827.86
2018-06-21T10:27:08.723Z,94825.37
2018-06-21T10:29:38.654Z,94826.20
2018-06-21T10:32:08.489Z,94829.03
2018-06-21T10:34:38.275Z,94831.38
2018-06-21T10:37:08.038Z,94833.63
2018-06-21T10:39:37.775Z,94832.63
2018-06-21T10:42:07.399Z,94834.45
2018-06-21T10:44:37.050Z,94826.80
2018-06-21T10:47:06.835Z,94823.17
2018-06-21T10:49:36.648Z,94816.86
2018-06-21T10:52:06.667Z,94815.66
2018-06-21T10:54:36.575Z,94816.69
2018-06-21T10:57:06.267Z,94809.36
2018-06-21T10:59:35.924Z,94797.47
2018-06-21T11:02:05.563Z,94799.35
2018-06-21T11:04:35.505Z,94801.48
2018-06-21T11:07:05.340Z,94809.36
2018-06-21T11:09:34.956Z,94815.92
2018-06-21T11:12:04.746Z,94818.53
2018-06-21T11:14:34.570Z,94829.49
2018-06-21T11:17:04.596Z,94829.98
2018-06-21T11:19:34.323Z,94833.48
2018-06-21T11:22:04.175Z,94839.47
2018-06-21T11:24:33.926Z,94836.05
2018-06-21T11:27:03.777Z,94834.17
2018-06-21T11:29:33.715Z,94825.81
2018-06-21T11:32:03.723Z,94829.39
2018-06-21T11:34:33.897Z,94830.08
2018-06-21T11:37:03.563Z,94832.20
2018-06-21T11:39:33.844Z,94827.94
2018-06-21T11:42:03.786Z,94817.27
2018-06-21T11:44:33.771Z,94810.70
2018-06-21T11:47:03.623Z,94808.88
2018-06-21T11:49:33.242Z,94792.81
2018-06-21T11:52:02.951Z,94787.94
2018-06-21T11:54:32.816Z,94783.36
2018-06-21T11:57:02.662Z,94792.84
2018-06-21T11:59:32.611Z,94792.65
2018-06-21T12:02:02.455Z,94803.78
2018-06-21T12:04:32.568Z,94799.48
2018-06-21T12:07:02.096Z,94797.15
2018-06-21T12:09:31.736Z,94785.95
2018-06-21T12:12:01.451Z,94786.41
2018-06-21T12:14:31.235Z,94784.58
2018-06-21T12:17:00.884Z,94779.00
2018-06-21T12:19:30.828Z,94776.89
2018-06-21T12:22:00.503Z,94771.98
2018-06-21T12:24:30.618Z,94772.55
2018-06-21T12:27:00.698Z,94765.70
2018-06-21T12:29:30.512Z,94766.58
2018-06-21T12:32:00.707Z,94769.38
2018-06-21T12:34:31.485Z,94762.67
2018-06-21T12:37:01.126Z,94771.25
2018-06-21T12:39:30.707Z,94769.55
2018-06-21T12:42:00.811Z,94771.40
2018-06-21T12:44:30.927Z,94774.98
2018-06-21T12:47:01.064Z,94770.91
2018-06-21T12:49:31.042Z,94777.91
2018-06-21T12:52:01.415Z,94765.33
2018-06-21T12:54:31.204Z,94766.41
2018-06-21T12:57:01.026Z,94771.92
2018-06-21T12:59:30.779Z,94763.75
2018-06-21T13:02:00.591Z,94752.44
2018-06-21T13:04:30.116Z,94749.37
2018-06-21T13:07:00.064Z,94738.83
2018-06-21T13:09:40.517Z,94737.38
2018-06-21T13:12:25.123Z,94742.64
2018-06-21T13:14:55.533Z,94746.09
2018-06-21T13:17:26.007Z,94742.03
2018-06-21T13:19:56.071Z,94734.78
2018-06-21T13:22:25.883Z,94738.84
2018-06-21T13:24:56.223Z,94722.64
2018-06-21T13:27:26.109Z,94721.40
2018-06-21T13:29:55.731Z,94717.75
2018-06-21T13:32:25.527Z,94713.48
2018-06-21T13:34:55.170Z,94707.56
2018-06-21T13:37:24.803Z,94708.17
2018-06-21T13:39:54.498Z,94712.43
2018-06-21T13:42:24.279Z,94718.78
2018-06-21T13:44:54.139Z,94711.92
2018-06-21T13:47:24.216Z,94718.84
2018-06-21T13:49:54.028Z,94727.02
2018-06-21T13:52:24.257Z,94724.17
2018-06-21T13:54:54.032Z,94726.22
2018-06-21T13:57:23.819Z,94721.25
2018-06-21T13:59:53.531Z,94723.14
2018-06-21T14:02:23.560Z,94714.84
2018-06-21T14:04:53.516Z,94717.64
2018-06-21T14:07:23.148Z,94709.13
2018-06-21T14:09:53.054Z,94709.71
2018-06-21T14:12:22.917Z,94707.66
2018-06-21T14:14:52.717Z,94703.95
2018-06-21T14:17:22.326Z,94692.03
2018-06-21T14:19:52.186Z,94693.60
2018-06-21T14:22:22.164Z,94688.05
2018-06-21T14:24:52.376Z,94680.32
2018-06-21T14:27:22.376Z,94683.94
2018-06-21T14:29:52.067Z,94691.12
2018-06-21T14:32:22.103Z,94688.05
2018-06-21T14:34:51.781Z,94690.00
2018-06-21T14:37:21.521Z,94682.84
2018-06-21T14:39:51.910Z,94685.99
2018-06-21T14:42:21.610Z,94691.67
2018-06-21T14:44:51.386Z,94695.30
2018-06-21T14:47:21.476Z,94698.61
2018-06-21T14:49:51.448Z,94701.70
2018-06-21T14:52:21.526Z,94699.58
2018-06-21T14:54:51.437Z,94698.02
2018-06-21T14:57:21.059Z,94701.03
2018-06-21T14:59:50.695Z,94700.64
2018-06-21T15:02:20.406Z,94710.73
2018-06-21T15:04:50.019Z,94710.61
2018-06-21T15:07:19.624Z,94713.29
2018-06-21T15:09:49.374Z,94717.16
2018-06-21T15:12:19.405Z,94707.70
2018-06-21T15:14:49.576Z,94703.45
2018-06-21T15:17:19.314Z,94700.17
2018-06-21T15:19:49.427Z,94688.95
2018-06-21T15:22:19.677Z,94686.44
2018-06-21T15:24:49.813Z,94681.20
2018-06-21T15:27:19.641Z,94678.12
2018-06-21T15:29:50.159Z,94673.48
2018-06-21T15:32:19.957Z,94667.47
2018-06-21T15:34:50.505Z,94660.50
2018-06-21T15:37:20.457Z,94656.05
2018-06-21T15:39:50.451Z,94654.44
2018-06-21T15:42:20.661Z,94635.37
2018-06-21T15:44:50.566Z,94638.98
2018-06-21T15:47:20.257Z,94627.98
2018-06-21T15:49:50.256Z,94621.22
2018-06-21T15:52:19.997Z,94617.94
2018-06-21T15:54:49.625Z,94618.31
2018-06-21T15:57:19.811Z,94617.17
2018-06-21T15:59:50.251Z,94625.46
2018-06-21T16:02:19.922Z,94634.16
2018-06-21T16:04:49.580Z,94637.99
2018-06-21T16:07:19.539Z,94638.81
2018-06-21T16:09:49.434Z,94644.97
2018-06-21T16:12:19.372Z,94639.79
2018-06-21T16:14:49.083Z,94654.67
2018-06-21T16:17:18.847Z,94668.98
2018-06-21T16:19:48.496Z,94664.55
2018-06-21T16:22:18.458Z,94676.02
2018-06-21T16:24:48.404Z,94676.39
2018-06-21T16:27:18.422Z,94694.83
2018-06-21T16:29:48.206Z,94702.91
2018-06-21T16:32:17.906Z,94714.84
2018-06-21T16:34:47.494Z,94707.59
2018-06-21T16:37:17.142Z,94718.27
2018-06-21T16:39:47.160Z,94719.05
2018-06-21T16:42:16.878Z,94720.43
2018-06-21T16:44:46.798Z,94720.14
2018-06-21T16:47:17.030Z,94721.45
2018-06-21T16:49:47.030Z,94725.69
2018-06-21T16:52:16.894Z,94728.64
2018-06-21T16:54:46.660Z,94724.83
2018-06-21T16:57:16.640Z,94727.63
2018-06-21T16:59:46.191Z,94720.69
2018-06-21T17:02:15.745Z,94725.71
2018-06-21T17:04:45.274Z,94728.75
2018-06-21T17:07:15.473Z,94728.14
2018-06-21T17:09:45.138Z,94731.10
2018-06-21T17:12:14.974Z,94716.89
2018-06-21T17:14:44.763Z,94714.80
2018-06-21T17:17:14.414Z,94702.28
2018-06-21T17:19:43.992Z,94703.89
2018-06-21T17:22:13.826Z,94703.16
2018-06-21T17:24:43.602Z,94695.77
2018-06-21T17:27:13.778Z,94698.13
2018-06-21T17:29:43.451Z,94699.88
2018-06-21T17:32:13.037Z,94702.24
2018-06-21T17:34:42.685Z,94693.52
2018-06-21T17:37:12.606Z,94694.02
2018-06-21T17:39:42.388Z,94688.86
2018-06-21T17:42:12.076Z,94692.59
2018-06-21T17:44:42.028Z,94692.23
2018-06-21T17:47:11.762Z,94690.98
2018-06-21T17:49:41.547Z,94684.60
2018-06-21T17:52:11.595Z,94685.83
2018-06-21T17:54:41.475Z,94684.52
2018-06-21T17:57:11.277Z,94676.73
2018-06-21T17:59:40.895Z,94682.03
2018-06-21T18:02:10.575Z,94678.30
2018-06-21T18:04:40.572Z,94673.17
2018-06-21T18:07:10.660Z,94674.73
2018-06-21T18:09:40.649Z,94674.73
2018-06-21T18:12:10.472Z,94673.27
2018-06-21T18:14:40.344Z,94673.99
2018-06-21T18:17:10.339Z,94677.42
2018-06-21T18:19:40.092Z,94677.42
2018-06-21T18:22:09.843Z,94676.66
2018-06-21T18:24:39.687Z,94675.24
2018-06-21T18:27:09.474Z,94677.87
2018-06-21T18:29:39.164Z,94670.98
2018-06-21T18:32:08.806Z,94671.36
2018-06-21T18:34:38.738Z,94670.39
2018-06-21T18:37:08.532Z,94675.70
2018-06-21T18:39:38.502Z,94672.86
2018-06-21T18:42:08.562Z,94671.48
2018-06-21T18:44:38.392Z,94682.41
2018-06-21T18:47:08.191Z,94684.12
2018-06-21T18:49:38.382Z,94691.36
2018-06-21T18:52:08.132Z,94698.23
2018-06-21T18:54:38.089Z,94696.77
2018-06-21T18:57:08.107Z,94704.48
2018-06-21T18:59:37.894Z,94705.90
2018-06-21T19:02:07.494Z,94719.26
2018-06-21T19:04:37.478Z,94708.19
2018-06-21T19:07:12.731Z,94702.25
2018-06-21T19:09:47.784Z,94703.58
2018-06-21T19:12:17.403Z,94714.55
2018-06-21T19:14:47.094Z,94715.09
2018-06-21T19:17:17.001Z,94717.55
2018-06-21T19:19:46.906Z,94717.34
2018-06-21T19:22:16.830Z,94725.30
2018-06-21T19:24:46.581Z,94735.23
2018-06-21T19:27:16.693Z,94724.04
2018-06-21T19:29:46.299Z,94726.55
2018-06-21T19:32:15.899Z,94727.64
2018-06-21T19:34:45.762Z,94728.86
2018-06-21T19:37:15.410Z,94723.92
2018-06-21T19:39:45.172Z,94727.17
2018-06-21T19:42:14.851Z,94734.13
2018-06-21T19:44:44.672Z,94731.84
2018-06-21T19:47:14.433Z,94729.24
2018-06-21T19:49:44.490Z,94731.24
2018-06-21T19:52:14.207Z,94734.87
2018-06-21T19:54:43.812Z,94732.89
2018-06-21T19:57:13.416Z,94733.36
2018-06-21T19:59:43.011Z,94733.77
2018-06-21T20:02:12.688Z,94728.28
2018-06-21T20:04:42.658Z,94728.06
2018-06-21T20:07:12.357Z,94719.91
2018-06-21T20:09:41.920Z,94721.80
2018-06-21T20:12:11.571Z,94725.75
2018-06-21T20:14:41.476Z,94720.13
2018-06-21T20:17:11.452Z,94718.80
2018-06-21T20:19:46.566Z,94713.64
2018-06-21T20:22:16.298Z,94717.08
2018-06-21T20:24:46.246Z,94707.87
2018-06-21T20:27:15.702Z,94715.07
2018-06-21T20:29:45.272Z,94712.17
2018-06-21T20:32:15.066Z,94706.05
2018-06-21T20:34:44.883Z,94713.98
2018-06-21T20:37:16.063Z,94716.36
2018-06-21T20:39:46.179Z,94709.73
2018-06-21T20:42:15.863Z,94711.29
2018-06-21T20:44:45.859Z,94703.22
2018-06-21T20:47:15.874Z,94705.11
2018-06-21T20:49:45.836Z,94703.54
2018-06-21T20:52:20.506Z,94702.84
2018-06-21T20:54:50.302Z,94707.29
2018-06-21T20:57:19.888Z,94700.83
2018-06-21T20:59:49.423Z,94707.29
2018-06-21T21:02:19.426Z,94703.19
2018-06-21T21:05:11.201Z,94699.70
2018-06-21T21:07:41.067Z,94700.20
2018-06-21T21:10:11.966Z,94690.78
2018-06-21T21:12:42.128Z,94692.55
2018-06-21T21:15:12.755Z,94682.84
2018-06-21T21:17:42.858Z,94696.58
2018-06-21T21:20:12.481Z,94688.07
2018-06-21T21:22:42.788Z,94688.20
2018-06-21T21:25:12.789Z,94690.25
2018-06-21T21:27:42.310Z,94685.59
2018-06-21T21:30:11.766Z,94681.69
2018-06-21T21:32:41.763Z,94682.41
2018-06-21T21:35:11.723Z,94686.63
2018-06-21T21:37:41.595Z,94676.55
2018-06-21T21:40:11.725Z,94679.67
2018-06-21T21:42:41.626Z,94675.65
2018-06-21T21:45:11.393Z,94686.11
2018-06-21T21:47:41.206Z,94683.33
2018-06-21T21:50:11.010Z,94685.23
2018-06-21T21:52:40.648Z,94682.59
2018-06-21T21:55:10.327Z,94681.16
2018-06-21T21:57:39.967Z,94687.21
2018-06-21T22:00:52.236Z,94673.46
2018-06-21T22:03:22.092Z,94680.59
2018-06-21T22:05:51.787Z,94679.91
2018-06-21T22:08:21.643Z,94671.22
2018-06-21T22:10:51.355Z,94668.70
2018-06-21T22:13:21.439Z,94664.58
2018-06-21T22:15:51.254Z,94664.13
2018-06-21T22:18:20.851Z,94659.77
2018-06-21T22:20:50.388Z,94660.70
2018-06-21T22:23:20.162Z,94653.55
2018-06-21T22:25:49.802Z,94648.94
2018-06-21T22:28:19.328Z,94655.29
2018-06-21T22:30:49.271Z,94652.92
2018-06-21T22:33:19.041Z,94645.70
2018-06-21T22:35:48.646Z,94640.95
2018-06-21T22:38:18.477Z,94644.64
2018-06-21T22:40:48.144Z,94637.53
2018-06-21T22:43:17.844Z,94633.90
2018-06-21T22:45:47.568Z,94639.16
2018-06-21T22:48:17.342Z,94642.59
2018-06-21T22:50:47.105Z,94640.56
2018-06-21T22:53:17.071Z,94636.80
2018-06-21T22:55:46.659Z,94638.20
2018-06-21T22:58:16.310Z,94640.31
2018-06-21T23:00:46.405Z,94642.17
2018-06-21T23:03:16.579Z,94644.89
2018-06-21T23:05:46.402Z,94646.58
2018-06-21T23:08:16.196Z,94641.21
2018-06-21T23:10:45.948Z,94634.03
2018-06-21T23:13:15.696Z,94643.89
2018-06-21T23:15:45.428Z,94642.90
2018-06-21T23:18:24.910Z,94648.00
2018-06-21T23:20:54.828Z,94647.75
2018-06-21T23:23:24.602Z,94641.00
2018-06-21T23:25:54.162Z,94642.98
2018-06-21T23:28:23.753Z,94641.03
2018-06-21T23:30:53.834Z,94635.87
2018-06-21T23:33:23.783Z,94637.50
2018-06-21T23:35:53.738Z,94638.17
2018-06-21T23:38:23.583Z,94635.60
2018-06-21T23:40:53.787Z,94632.75
2018-06-21T23:43:23.830Z,94620.27
2018-06-21T23:45:53.723Z,94625.02
2018-06-21T23:48:23.473Z,94624.20
2018-06-21T23:50:53.567Z,94614.61
2018-06-21T23:53:23.155Z,94616.08
2018-06-21T23:55:52.687Z,94623.59
2018-06-21T23:58:22.238Z,94615.16
